Time;durP1;ratioP1;P1;durP2;ratioP2;P2;SDS_P1;SDS_P2;PMS_P1;PMS_P2;Temp;Humidity;BMP_temperature;BMP_pressure;BME280_temperature;BME280_humidity;BME280_pressure;Samples;Min_cycle;Max_cycle;Signal;HPM_P1;HPM_P2
2023/09/30 00:02:54;;;;;;;18.92;8.88;;;;;;;-145.68;71.12;73327.91;10385701;28;20220;-72
2023/09/30 00:07:54;;;;;;;26.02;9.85;;;;;;;-145.68;70.78;73335.91;10401955;28;20205;-72
2023/09/30 00:12:55;;;;;;;24.33;9.77;;;;;;;-145.68;71.50;73343.88;10403017;28;20197;-72
2023/09/30 00:17:55;;;;;;;20.35;9.93;;;;;;;-145.68;72.45;73375.88;10401829;28;20192;-72
2023/09/30 00:22:55;;;;;;;30.83;10.30;;;;;;;-145.68;73.96;73393.84;10402708;28;20231;-72
2023/09/30 00:27:56;;;;;;;27.00;11.63;;;;;;;-145.68;74.93;73399.84;10404283;28;20565;-72
2023/09/30 00:32:56;;;;;;;24.38;10.07;;;;;;;-145.68;75.45;73415.84;10409519;28;20192;-72
2023/09/30 00:37:57;;;;;;;21.23;9.85;;;;;;;-145.68;76.30;73431.84;10410074;28;20271;-72
2023/09/30 00:42:58;;;;;;;23.33;9.88;;;;;;;-145.68;76.84;73421.84;10391235;28;20259;-72
2023/09/30 00:47:58;;;;;;;23.90;10.63;;;;;;;-145.68;77.58;73425.84;10391459;28;20688;-72
2023/09/30 00:52:59;;;;;;;21.52;8.68;;;;;;;-145.68;80.11;73461.81;10391235;28;20195;-72
2023/09/30 00:57:59;;;;;;;10.70;4.25;;;;;;;-145.68;83.71;73479.81;10390934;28;20293;-73
2023/09/30 01:03:03;;;;;;;6.93;3.30;;;;;;;-145.68;88.69;73501.78;10388417;28;20239;-72
2023/09/30 01:08:04;;;;;;;6.70;3.80;;;;;;;-145.68;92.35;73511.78;10409855;28;20291;-72
2023/09/30 01:13:04;;;;;;;4.45;2.92;;;;;;;-145.68;97.22;73537.78;10409861;28;20195;-72
2023/09/30 01:18:05;;;;;;;7.75;3.15;;;;;;;-145.68;100.00;73583.75;10409804;28;20195;-72
2023/09/30 01:23:05;;;;;;;7.07;3.50;;;;;;;-145.68;100.00;73579.75;10411555;28;20224;-72
2023/09/30 01:28:08;;;;;;;6.72;5.15;;;;;;;-145.68;100.00;73607.72;10408200;28;20632;-72
2023/09/30 01:33:08;;;;;;;8.68;5.43;;;;;;;-145.68;100.00;73635.72;10409702;28;20199;-72
2023/09/30 01:38:09;;;;;;;8.25;5.72;;;;;;;-145.68;100.00;73655.69;10410770;28;20196;-72
2023/09/30 01:43:10;;;;;;;6.10;5.47;;;;;;;-145.68;100.00;73695.69;10413738;28;20216;-72
2023/09/30 01:48:11;;;;;;;5.55;4.18;;;;;;;-145.68;100.00;73707.69;10419990;28;20236;-72
2023/09/30 01:53:11;;;;;;;9.18;3.47;;;;;;;-145.68;100.00;73751.66;10450625;28;20180;-72
2023/09/30 01:58:11;;;;;;;6.78;3.00;;;;;;;-145.68;100.00;73765.66;10455516;28;20221;-72
2023/09/30 02:03:12;;;;;;;6.15;2.40;;;;;;;-145.68;100.00;73779.63;10432552;28;20223;-72
2023/09/30 02:08:13;;;;;;;5.35;2.10;;;;;;;-145.68;100.00;73801.63;10449889;28;20199;-72
2023/09/30 02:13:14;;;;;;;6.53;2.40;;;;;;;-145.68;100.00;73823.63;10432177;28;20700;-72
2023/09/30 02:18:14;;;;;;;8.70;2.40;;;;;;;-145.68;100.00;73841.59;10435992;28;20329;-72
2023/09/30 02:23:17;;;;;;;6.35;2.17;;;;;;;-145.68;100.00;73865.59;10431117;28;20644;-72
2023/09/30 02:28:17;;;;;;;6.68;2.10;;;;;;;-145.68;100.00;73909.56;10450924;28;20191;-72
2023/09/30 02:33:17;;;;;;;6.25;2.38;;;;;;;-145.68;100.00;73955.53;10450140;28;20192;-72
2023/09/30 02:38:18;;;;;;;13.85;3.20;;;;;;;-145.68;100.00;73967.53;10447674;28;20218;-72
2023/09/30 02:43:18;;;;;;;9.02;2.70;;;;;;;-145.68;100.00;73997.53;10428832;28;20692;-72
2023/09/30 02:48:18;;;;;;;6.78;2.83;;;;;;;-145.68;100.00;74009.53;10428645;28;20583;-72
2023/09/30 02:53:20;;;;;;;8.43;3.00;;;;;;;-145.68;100.00;74061.50;10426969;28;20242;-72
2023/09/30 02:58:20;;;;;;;14.65;3.45;;;;;;;-145.68;100.00;74079.50;10452432;28;20285;-72
2023/09/30 03:03:21;;;;;;;8.57;2.78;;;;;;;-145.68;100.00;74079.50;10448707;28;20223;-72
2023/09/30 03:08:22;;;;;;;12.68;2.83;;;;;;;-145.68;100.00;74079.50;10448680;28;20283;-72
2023/09/30 03:13:22;;;;;;;9.95;2.67;;;;;;;-145.68;100.00;74095.47;10430359;28;20195;-72
2023/09/30 03:18:26;;;;;;;13.52;3.13;;;;;;;-145.68;100.00;74105.47;10448222;28;20184;-72
2023/09/30 03:23:30;;;;;;;13.10;3.30;;;;;;;-145.68;100.00;74109.47;10446128;28;20216;-72
2023/09/30 03:28:30;;;;;;;9.00;2.80;;;;;;;-145.68;100.00;74111.47;10428781;28;20184;-72
2023/09/30 03:33:35;;;;;;;12.30;3.13;;;;;;;-145.68;100.00;74123.47;10451369;28;20188;-72
2023/09/30 03:38:36;;;;;;;14.00;3.28;;;;;;;-145.68;100.00;74125.47;10446387;28;20192;-72
2023/09/30 03:43:40;;;;;;;10.20;2.70;;;;;;;-145.68;100.00;74133.47;10428040;28;20579;-72
2023/09/30 03:48:42;;;;;;;7.68;2.92;;;;;;;-145.68;100.00;74157.44;10427027;28;20668;-72
2023/09/30 03:53:44;;;;;;;9.07;2.45;;;;;;;-145.68;100.00;74145.47;10451555;28;20279;-72
2023/09/30 03:58:45;;;;;;;8.80;3.00;;;;;;;-145.68;100.00;74181.44;10445202;28;20660;-72
2023/09/30 04:03:45;;;;;;;11.60;2.67;;;;;;;-145.68;100.00;74195.44;10449181;28;20216;-72
2023/09/30 04:08:46;;;;;;;9.75;2.15;;;;;;;-145.68;100.00;74191.44;10453420;28;20219;-72
2023/09/30 04:13:46;;;;;;;6.60;2.35;;;;;;;-145.68;100.00;74195.44;10459097;28;20196;-72
2023/09/30 04:18:50;;;;;;;12.90;3.13;;;;;;;-145.68;100.00;74203.44;10452941;28;20200;-73
2023/09/30 04:23:50;;;;;;;8.93;2.90;;;;;;;-145.68;100.00;74219.44;10452723;28;20220;-72
2023/09/30 04:28:51;;;;;;;9.27;2.83;;;;;;;-145.68;100.00;74241.41;10453150;28;20195;-72
2023/09/30 04:33:52;;;;;;;14.18;3.13;;;;;;;-145.68;100.00;74253.41;10457796;28;20556;-72
2023/09/30 04:38:53;;;;;;;9.35;3.47;;;;;;;-145.68;100.00;74257.41;10449173;28;20223;-72
2023/09/30 04:43:53;;;;;;;10.40;3.13;;;;;;;-145.68;100.00;74275.41;10452040;28;20226;-72
2023/09/30 04:48:53;;;;;;;14.40;3.63;;;;;;;-145.68;97.78;74285.41;10457352;28;20691;-72
2023/09/30 04:53:59;;;;;;;14.70;3.42;;;;;;;-145.68;97.15;74291.41;10452613;28;20200;-72
2023/09/30 04:58:59;;;;;;;11.70;2.97;;;;;;;-145.68;97.94;74311.38;10433750;28;20195;-73
2023/09/30 05:04:00;;;;;;;10.70;3.13;;;;;;;-145.68;100.00;74343.38;10451082;28;20187;-72
2023/09/30 05:09:00;;;;;;;15.32;3.75;;;;;;;-145.68;100.00;74359.38;10457046;28;20721;-72
2023/09/30 05:14:00;;;;;;;21.63;4.07;;;;;;;-145.68;100.00;74365.38;10449626;28;20206;-72
2023/09/30 05:19:01;;;;;;;21.60;4.05;;;;;;;-145.68;100.00;74375.38;10450880;28;20195;-73
2023/09/30 05:24:02;;;;;;;13.63;3.55;;;;;;;-145.68;100.00;74387.34;10450560;28;20200;-72
2023/09/30 05:29:03;;;;;;;17.08;3.95;;;;;;;-145.68;100.00;74397.34;10456358;28;20207;-72
2023/09/30 05:34:04;;;;;;;17.48;3.60;;;;;;;-145.68;100.00;74391.34;10450229;28;20196;-72
2023/09/30 05:39:05;;;;;;;15.20;3.60;;;;;;;-145.68;100.00;74391.34;10452985;28;20191;-72
2023/09/30 05:44:07;;;;;;;9.15;3.05;;;;;;;-145.68;100.00;74381.34;10449607;28;20578;-73
2023/09/30 05:49:10;;;;;;;15.25;3.60;;;;;;;-145.68;100.00;74381.34;10455822;28;20239;-73
2023/09/30 05:54:11;;;;;;;13.82;3.75;;;;;;;-145.68;100.00;74383.34;10454191;28;20665;-72
2023/09/30 05:59:13;;;;;;;12.20;3.80;;;;;;;-145.68;100.00;74367.38;10435583;28;20204;-73
2023/09/30 06:04:13;;;;;;;14.00;3.63;;;;;;;-145.68;100.00;74373.38;10454026;28;20196;-72
2023/09/30 06:09:14;;;;;;;14.68;4.05;;;;;;;-145.68;100.00;74357.38;10452181;28;20246;-73
2023/09/30 06:14:14;;;;;;;17.92;3.58;;;;;;;-145.68;100.00;74371.38;10448975;28;20680;-73
2023/09/30 06:19:15;;;;;;;11.55;3.13;;;;;;;-145.68;100.00;74345.38;10448742;28;20200;-73
2023/09/30 06:24:15;;;;;;;13.25;3.30;;;;;;;-145.68;100.00;74339.38;10430153;28;20245;-74
2023/09/30 06:29:16;;;;;;;10.32;3.13;;;;;;;-145.68;100.00;74325.38;10447884;28;20253;-74
2023/09/30 06:34:16;;;;;;;15.43;3.30;;;;;;;-145.68;100.00;74323.38;10445826;28;20183;-73
2023/09/30 06:39:17;;;;;;;14.70;4.13;;;;;;;-145.68;100.00;74315.38;10447744;28;20196;-73
2023/09/30 06:44:17;;;;;;;9.45;3.67;;;;;;;-145.68;100.00;74295.41;10453507;28;20253;-73
2023/09/30 06:49:18;;;;;;;16.45;4.60;;;;;;;-145.68;100.00;74311.38;10450392;28;20699;-73
2023/09/30 06:54:18;;;;;;;14.55;3.83;;;;;;;-145.68;100.00;74327.38;10450488;28;20223;-73
2023/09/30 06:59:18;;;;;;;16.98;4.30;;;;;;;-145.68;100.00;74331.38;10439161;28;20188;-73
2023/09/30 07:04:19;;;;;;;10.52;4.07;;;;;;;-145.68;100.00;74317.38;10446803;28;20557;-73
2023/09/30 07:09:20;;;;;;;18.63;4.18;;;;;;;-145.68;100.00;74317.38;10445627;28;20704;-73
2023/09/30 07:14:20;;;;;;;26.63;9.90;;;;;;;-145.68;100.00;74309.38;10445337;28;20278;-73
2023/09/30 07:19:21;;;;;;;26.73;8.52;;;;;;;-145.68;98.24;74273.41;10445617;28;20192;-73
2023/09/30 07:24:21;;;;;;;21.83;5.88;;;;;;;-145.68;92.90;74263.41;10452843;28;20191;-73
2023/09/30 07:29:23;;;;;;;23.40;5.00;;;;;;;-145.68;88.08;74235.41;10444756;28;20600;-73
2023/09/30 07:34:23;;;;;;;15.73;3.45;;;;;;;-145.68;81.71;74167.44;10445482;28;20258;-72
2023/09/30 07:39:23;;;;;;;15.65;3.72;;;;;;;-145.68;74.73;74145.47;10457955;28;20645;-72
2023/09/30 07:44:24;;;;;;;12.68;3.33;;;;;;;-145.68;72.44;74139.47;10460315;28;20197;-73
2023/09/30 07:49:24;;;;;;;14.10;3.45;;;;;;;-145.68;68.50;73989.53;10458400;28;20222;-73
2023/09/30 07:54:25;;;;;;;12.57;3.10;;;;;;;-145.68;63.49;73971.53;10457713;28;20192;-73
2023/09/30 07:59:26;;;;;;;11.32;3.10;;;;;;;-145.68;62.85;73917.56;10464051;28;20211;-74
2023/09/30 08:04:26;;;;;;;15.18;3.25;;;;;;;-145.68;59.69;73819.63;10458373;28;20525;-73
2023/09/30 08:09:27;;;;;;;11.00;3.65;;;;;;;-145.68;58.05;73911.56;10460993;28;20215;-73
2023/09/30 08:14:27;;;;;;;12.25;3.08;;;;;;;-145.68;59.85;73953.53;10457599;28;20188;-73
2023/09/30 08:19:27;;;;;;;11.40;3.20;;;;;;;-145.68;57.72;73949.56;10463885;28;20218;-73
2023/09/30 08:24:31;;;;;;;11.38;2.83;;;;;;;-145.68;58.48;73911.56;10457624;28;20198;-74
2023/09/30 08:29:38;;;;;;;10.90;3.10;;;;;;;-145.68;55.39;73871.59;10457532;28;20644;-73
2023/09/30 08:34:39;;;;;;;15.20;2.88;;;;;;;-145.68;56.41;73889.56;10457386;28;20187;-73
2023/09/30 08:39:45;;;;;;;8.40;2.67;;;;;;;-145.68;55.23;73807.63;10464414;28;20223;-74
2023/09/30 08:44:46;;;;;;;9.23;2.88;;;;;;;-145.68;52.15;73735.66;10457545;28;20734;-73
2023/09/30 08:49:48;;;;;;;13.43;3.45;;;;;;;-145.68;52.82;73835.59;10435975;28;20726;-74
2023/09/30 08:54:49;;;;;;;9.00;2.78;;;;;;;-145.68;51.61;73835.59;10432354;28;20283;-73
2023/09/30 08:59:49;;;;;;;11.25;2.90;;;;;;;-145.68;51.07;73755.66;10456036;28;20250;-74
2023/09/30 09:04:50;;;;;;;12.73;2.85;;;;;;;-145.68;51.76;73759.66;10432015;28;20551;-73
2023/09/30 09:10:13;;;;;;;12.60;2.95;;;;;;;-145.68;50.52;73671.69;10453702;28;20195;-73
2023/09/30 09:15:23;;;;;;;6.90;2.30;;;;;;;-145.68;48.60;73619.72;10453974;28;20207;-72
2023/09/30 09:20:25;;;;;;;14.98;2.92;;;;;;;-145.68;48.53;73647.72;10453930;28;20220;-72
2023/09/30 09:25:26;;;;;;;9.30;2.75;;;;;;;-145.68;47.38;73561.75;10450897;28;20229;-72
2023/09/30 09:30:27;;;;;;;12.43;2.65;;;;;;;-145.68;46.51;73581.75;10434544;28;20184;-72
2023/09/30 09:35:30;;;;;;;14.38;3.17;;;;;;;-145.68;46.49;73497.78;10455929;28;20195;-72
2023/09/30 09:40:40;;;;;;;14.40;3.00;;;;;;;-145.68;44.47;73427.84;10453538;28;20216;-74
2023/09/30 09:45:41;;;;;;;8.48;2.97;;;;;;;-145.68;45.44;73383.88;10450654;28;20191;-74
2023/09/30 09:50:43;;;;;;;10.10;2.60;;;;;;;-145.68;42.80;73463.81;10430832;28;20601;-75
2023/09/30 09:55:45;;;;;;;9.68;2.80;;;;;;;-145.68;43.33;73375.88;10436725;28;20188;-74
2023/09/30 10:00:46;;;;;;;9.20;2.28;;;;;;;-145.68;42.79;73419.84;10429367;28;20673;-75
2023/09/30 10:05:46;;;;;;;8.15;2.63;;;;;;;-145.68;40.44;73223.97;10452205;28;20199;-75
2023/09/30 10:10:47;;;;;;;9.75;2.40;;;;;;;-145.68;40.03;73213.97;10450530;28;20192;-75
2023/09/30 10:15:48;;;;;;;7.90;2.65;;;;;;;-145.68;38.17;73116.03;10457689;28;20196;-75
2023/09/30 10:20:49;;;;;;;8.07;2.63;;;;;;;-145.68;39.53;73176.00;10446634;28;20211;-73
2023/09/30 10:25:51;;;;;;;9.02;2.53;;;;;;;-145.68;38.29;73014.13;10447861;28;20825;-74
2023/09/30 10:31:27;;;;;;;8.73;2.53;;;;;;;-145.68;39.46;73142.03;10453801;28;20200;-75
2023/09/30 10:36:36;;;;;;;8.75;3.30;;;;;;;-145.68;38.36;73058.09;10396095;28;20250;-75
2023/09/30 10:41:50;;;;;;;9.05;2.72;;;;;;;-145.68;40.50;73253.94;10428898;28;20207;-75
2023/09/30 10:46:51;;;;;;;12.00;3.03;;;;;;;-145.68;41.85;73443.84;10446938;28;20196;-75
2023/09/30 10:51:56;;;;;;;8.32;2.47;;;;;;;-145.68;41.37;73369.88;10458753;28;20227;-76
2023/09/30 10:56:59;;;;;;;10.32;2.78;;;;;;;-145.68;40.42;73227.97;10443323;28;20202;-73
2023/09/30 11:01:59;;;;;;;8.20;3.00;;;;;;;-145.68;37.99;73146.03;10453902;28;20208;-73
2023/09/30 11:07:00;;;;;;;14.18;3.20;;;;;;;-145.68;40.17;73345.88;10446740;28;20585;-73
2023/09/30 11:12:01;;;;;;;6.25;2.35;;;;;;;-145.68;40.78;73323.91;10434344;28;20187;-73
2023/09/30 11:17:03;;;;;;;7.93;2.55;;;;;;;-145.68;38.86;73203.97;10436377;28;20273;-73
2023/09/30 11:22:05;;;;;;;9.40;2.47;;;;;;;-145.68;39.26;73140.03;10429321;28;20220;-73
2023/09/30 11:27:05;;;;;;;9.02;2.80;;;;;;;-145.68;39.54;73164.00;10411823;28;20282;-73
2023/09/30 11:32:06;;;;;;;7.43;2.75;;;;;;;-145.68;39.78;73253.94;10447288;28;20200;-73
2023/09/30 11:37:06;;;;;;;11.57;2.72;;;;;;;-145.68;40.91;73323.91;10445867;28;20329;-73
2023/09/30 11:42:16;;;;;;;6.50;2.50;;;;;;;-145.68;40.48;73247.97;10446140;28;20219;-73
2023/09/30 11:47:29;;;;;;;7.93;2.65;;;;;;;-145.68;37.67;73094.06;10451151;28;20219;-73
2023/09/30 11:52:30;;;;;;;11.80;2.50;;;;;;;-145.68;38.74;73215.97;10445233;28;20196;-73
2023/09/30 11:57:30;;;;;;;7.63;2.80;;;;;;;-145.68;36.97;73022.13;10445888;28;20593;-73
2023/09/30 12:02:31;;;;;;;11.15;3.22;;;;;;;-145.68;36.94;72988.13;10445827;28;20679;-73
2023/09/30 12:07:33;;;;;;;7.30;2.40;;;;;;;-145.68;35.27;72830.25;10450596;28;20694;-73
2023/09/30 12:12:33;;;;;;;5.70;2.05;;;;;;;-145.68;36.31;72926.19;10428003;28;20196;-73
2023/09/30 12:17:33;;;;;;;5.68;2.13;;;;;;;-145.68;34.94;72988.13;10426694;28;20200;-71
2023/09/30 12:22:37;;;;;;;7.32;2.88;;;;;;;-145.68;35.04;72996.13;10445399;28;20215;-71
2023/09/30 12:27:39;;;;;;;9.65;2.55;;;;;;;-145.68;35.51;73004.13;10440721;28;20401;-73
2023/09/30 12:32:40;;;;;;;10.10;2.63;;;;;;;-145.68;36.56;73062.09;10452185;28;20321;-73
2023/09/30 12:37:43;;;;;;;8.80;2.05;;;;;;;-145.68;34.25;72882.22;10434390;28;20192;-73
2023/09/30 12:42:44;;;;;;;10.20;2.83;;;;;;;-145.68;34.71;72870.22;10452475;28;20216;-73
2023/09/30 12:47:47;;;;;;;7.18;2.20;;;;;;;-145.68;35.23;72912.19;10439599;28;20258;-73
2023/09/30 12:52:47;;;;;;;7.30;2.70;;;;;;;-145.68;33.65;72888.22;10452754;28;20184;-73
2023/09/30 12:57:47;;;;;;;6.68;2.35;;;;;;;-145.68;33.28;72886.22;10451346;28;20211;-73
2023/09/30 13:02:48;;;;;;;6.53;2.10;;;;;;;-145.68;32.54;72698.34;10457162;28;20214;-73
2023/09/30 13:07:49;;;;;;;8.15;2.38;;;;;;;-145.68;32.76;72664.38;10451380;28;20188;-73
2023/09/30 13:12:49;;;;;;;9.52;2.60;;;;;;;-145.68;32.34;72712.34;10451390;28;20187;-73
2023/09/30 13:17:50;;;;;;;7.05;2.25;;;;;;;-145.68;31.25;72516.50;10450952;28;20881;-73
2023/09/30 13:22:50;;;;;;;10.43;2.28;;;;;;;-145.68;32.90;72730.34;10456575;28;20219;-73
2023/09/30 13:27:50;;;;;;;7.70;2.28;;;;;;;-145.68;33.02;72760.31;10450086;28;20196;-73
2023/09/30 13:32:51;;;;;;;8.52;2.35;;;;;;;-145.68;32.80;72724.34;10450353;28;20472;-73
2023/09/30 13:37:51;;;;;;;5.18;2.20;;;;;;;-145.68;32.32;72712.34;10431739;28;20192;-73
2023/09/30 13:42:52;;;;;;;7.32;2.70;;;;;;;-145.68;31.15;72560.47;10455840;28;20301;-73
2023/09/30 13:47:52;;;;;;;9.02;3.38;;;;;;;-145.68;32.07;72576.47;10454994;28;20289;-73
2023/09/30 13:52:53;;;;;;;7.50;2.78;;;;;;;-145.68;33.33;72706.34;10450229;28;20242;-73
2023/09/30 13:57:54;;;;;;;7.68;2.38;;;;;;;-145.68;33.36;72750.31;10448681;28;20198;-73
2023/09/30 14:02:55;;;;;;;5.97;2.30;;;;;;;-145.68;33.92;72776.28;10455279;28;20221;-73
2023/09/30 14:07:55;;;;;;;8.23;2.28;;;;;;;-145.68;32.24;72724.34;10448814;28;20570;-73
2023/09/30 14:12:57;;;;;;;10.02;2.42;;;;;;;-145.68;31.79;72548.47;10448843;28;20183;-73
2023/09/30 14:17:58;;;;;;;7.95;3.00;;;;;;;-145.68;32.50;72680.38;10449113;28;20351;-73
2023/09/30 14:22:58;;;;;;;9.43;2.42;;;;;;;-145.68;31.84;72668.38;10453399;28;20223;-74
2023/09/30 14:27:59;;;;;;;6.20;2.10;;;;;;;-145.68;31.75;72652.41;10447913;28;20204;-73
2023/09/30 14:33:00;;;;;;;9.70;2.22;;;;;;;-145.68;32.64;72786.28;10448375;28;20184;-73
2023/09/30 14:38:02;;;;;;;7.47;2.15;;;;;;;-145.68;32.26;72688.38;10453612;28;20199;-73
2023/09/30 14:43:05;;;;;;;6.63;2.08;;;;;;;-145.68;31.19;72520.50;10447754;28;20682;-73
2023/09/30 14:48:11;;;;;;;7.75;2.50;;;;;;;-145.68;31.18;72552.47;10446594;28;20239;-73
2023/09/30 14:53:12;;;;;;;7.65;2.10;;;;;;;-145.68;30.65;72412.59;10448068;28;20199;-73
2023/09/30 14:58:13;;;;;;;6.63;2.05;;;;;;;-145.68;30.13;72478.53;10451817;28;20192;-73
2023/09/30 15:03:13;;;;;;;7.00;2.35;;;;;;;-145.68;29.74;72448.56;10429543;28;20691;-74
2023/09/30 15:08:13;;;;;;;5.97;2.50;;;;;;;-145.68;29.59;72452.56;10446812;28;20183;-73
2023/09/30 15:13:14;;;;;;;9.50;2.45;;;;;;;-145.68;33.69;73116.03;10446550;28;20188;-73
2023/09/30 15:18:14;;;;;;;9.23;2.17;;;;;;;-145.68;33.46;72912.19;10452638;28;20191;-73
2023/09/30 15:23:14;;;;;;;10.38;2.47;;;;;;;-145.68;32.19;72716.34;10445923;28;20215;-72
2023/09/30 15:28:15;;;;;;;7.25;2.17;;;;;;;-145.68;31.94;72630.41;10446549;28;20192;-72
2023/09/30 15:33:17;;;;;;;8.32;2.70;;;;;;;-145.68;31.33;72574.47;10446388;28;20196;-70
2023/09/30 15:38:18;;;;;;;7.32;1.95;;;;;;;-145.68;33.76;72906.19;10451203;28;20188;-70
2023/09/30 15:43:19;;;;;;;7.35;2.35;;;;;;;-145.68;32.53;72770.31;10446248;28;20699;-70
2023/09/30 15:48:20;;;;;;;7.45;2.25;;;;;;;-145.68;35.55;73188.00;10445082;28;20284;-70
2023/09/30 15:53:20;;;;;;;6.60;2.10;;;;;;;-145.68;37.01;73253.94;10449456;28;20209;-72
2023/09/30 15:58:20;;;;;;;7.10;2.25;;;;;;;-145.68;40.98;73537.78;10448955;28;20187;-73
2023/09/30 16:03:22;;;;;;;8.70;2.13;;;;;;;-145.68;43.06;73699.69;10454067;28;20627;-72
2023/09/30 16:08:22;;;;;;;10.52;2.60;;;;;;;-145.68;45.11;73807.63;10455231;28;20187;-72
2023/09/30 16:13:23;;;;;;;9.43;2.10;;;;;;;-145.68;47.66;73935.56;10457344;28;20191;-72
2023/09/30 16:18:23;;;;;;;9.35;2.63;;;;;;;-145.68;48.56;73951.53;10453494;28;20202;-72
2023/09/30 16:23:24;;;;;;;9.20;2.38;;;;;;;-145.68;49.92;73971.53;10435054;28;20706;-72
2023/09/30 16:28:24;;;;;;;7.70;2.25;;;;;;;-145.68;50.47;74053.50;10453023;28;20656;-73
2023/09/30 16:33:25;;;;;;;7.80;2.20;;;;;;;-145.68;52.67;74119.47;10459164;28;20195;-72
2023/09/30 16:38:25;;;;;;;12.80;2.55;;;;;;;-145.68;54.17;74165.44;10451650;28;20547;-72
2023/09/30 16:43:26;;;;;;;5.75;2.53;;;;;;;-145.68;54.72;74195.44;10452760;28;20215;-72
2023/09/30 16:48:26;;;;;;;8.07;2.05;;;;;;;-145.68;58.08;74361.38;10451770;28;20281;-72
2023/09/30 16:53:27;;;;;;;12.00;2.83;;;;;;;-145.68;60.53;74415.34;10457515;28;20279;-72
2023/09/30 16:58:29;;;;;;;6.50;2.60;;;;;;;-145.68;62.50;74469.31;10451817;28;20208;-72
2023/09/30 17:03:29;;;;;;;14.68;3.53;;;;;;;-145.68;66.09;74541.31;10451702;28;20215;-72
2023/09/30 17:08:29;;;;;;;8.48;3.10;;;;;;;-145.68;68.13;74563.28;10450922;28;20197;-72
2023/09/30 17:13:30;;;;;;;7.47;2.45;;;;;;;-145.68;68.87;74549.28;10455905;28;20192;-72
2023/09/30 17:18:30;;;;;;;9.10;3.50;;;;;;;-145.68;71.61;74565.28;10451033;28;20228;-72
2023/09/30 17:23:31;;;;;;;6.63;2.80;;;;;;;-145.68;72.05;74579.28;10450614;28;20305;-72
2023/09/30 17:28:31;;;;;;;8.67;3.10;;;;;;;-145.68;72.67;74579.28;10455409;28;20195;-72
2023/09/30 17:33:36;;;;;;;8.83;2.60;;;;;;;-145.68;73.97;74595.28;10451121;28;20197;-72
2023/09/30 17:38:37;;;;;;;8.47;2.70;;;;;;;-145.68;74.97;74593.28;10449671;28;20690;-72
2023/09/30 17:43:37;;;;;;;11.00;3.03;;;;;;;-145.68;75.73;74611.28;10450161;28;20590;-72
2023/09/30 17:48:38;;;;;;;9.93;3.17;;;;;;;-145.68;78.45;74651.25;10436085;28;20243;-72
2023/09/30 17:53:38;;;;;;;9.20;3.13;;;;;;;-145.68;80.70;74667.25;10449685;28;20548;-72
2023/09/30 17:58:39;;;;;;;11.70;3.27;;;;;;;-145.68;81.82;74683.25;10449228;28;20283;-72
2023/09/30 18:03:39;;;;;;;9.30;3.30;;;;;;;-145.68;83.71;74709.25;10449059;28;20211;-73
2023/09/30 18:08:40;;;;;;;15.70;3.77;;;;;;;-145.68;85.04;74709.25;10454460;28;20287;-72
2023/09/30 18:13:41;;;;;;;11.30;3.20;;;;;;;-145.68;85.76;74719.25;10449202;28;20188;-72
2023/09/30 18:18:42;;;;;;;11.47;4.17;;;;;;;-145.68;87.18;74759.22;10448067;28;20195;-72
2023/09/30 18:23:42;;;;;;;8.87;3.40;;;;;;;-145.68;88.93;74763.22;10448404;28;20223;-72
2023/09/30 18:28:43;;;;;;;18.30;5.20;;;;;;;-145.68;89.94;74771.22;10453856;28;20287;-72
2023/09/30 18:33:43;;;;;;;10.87;4.10;;;;;;;-145.68;91.36;74803.22;10448165;28;20538;-73
2023/09/30 18:38:46;;;;;;;12.40;4.00;;;;;;;-145.68;92.71;74813.22;10447341;28;20203;-72
2023/09/30 18:43:47;;;;;;;12.20;3.60;;;;;;;-145.68;94.24;74831.22;10430147;28;20216;-72
2023/09/30 18:48:47;;;;;;;11.67;3.97;;;;;;;-145.68;95.35;74837.22;10452686;28;20235;-72
2023/09/30 18:53:47;;;;;;;10.70;3.53;;;;;;;-145.68;96.97;74857.22;10447237;28;20198;-72
2023/09/30 18:58:48;;;;;;;15.00;4.13;;;;;;;-145.68;98.19;74871.19;10447151;28;20192;-72
2023/09/30 19:03:48;;;;;;;8.07;3.43;;;;;;;-145.68;100.00;74891.19;10452159;28;20212;-71
2023/09/30 19:08:49;;;;;;;11.93;3.77;;;;;;;-145.68;100.00;74899.19;10446506;28;20251;-71
2023/09/30 19:13:49;;;;;;;10.07;3.40;;;;;;;-145.68;100.00;74911.19;10447043;28;20200;-72
2023/09/30 19:18:50;;;;;;;9.80;3.63;;;;;;;-145.68;100.00;74911.19;10445741;28;20555;-72
2023/09/30 19:23:51;;;;;;;8.37;3.53;;;;;;;-145.68;100.00;74917.19;10452352;28;20262;-72
2023/09/30 19:28:51;;;;;;;10.93;3.73;;;;;;;-145.68;100.00;74925.19;10445829;28;20257;-72
2023/09/30 19:33:52;;;;;;;6.50;3.87;;;;;;;-145.68;100.00;74943.19;10445565;28;20254;-71
2023/09/30 19:38:53;;;;;;;8.33;3.43;;;;;;;-145.68;100.00;74961.19;10451523;28;20245;-72
2023/09/30 19:43:53;;;;;;;7.20;3.83;;;;;;;-145.68;100.00;74967.19;10433960;28;20228;-72
2023/09/30 19:48:54;;;;;;;11.67;3.80;;;;;;;-145.68;100.00;74959.19;10444893;28;20235;-72
2023/09/30 19:53:55;;;;;;;8.90;3.90;;;;;;;-145.68;100.00;74965.19;10445978;28;20239;-72
2023/09/30 19:58:55;;;;;;;7.50;3.40;;;;;;;-145.68;100.00;74971.19;10445597;28;20222;-72
2023/09/30 20:03:57;;;;;;;9.53;4.40;;;;;;;-145.68;100.00;74991.16;10451498;28;20584;-72
2023/09/30 20:08:58;;;;;;;11.67;3.63;;;;;;;-145.68;100.00;74991.16;10445472;28;20199;-72
2023/09/30 20:13:59;;;;;;;8.00;3.97;;;;;;;-145.68;100.00;75009.16;10445423;28;20196;-72
2023/09/30 20:18:59;;;;;;;11.00;3.70;;;;;;;-145.68;100.00;75019.16;10441540;28;20223;-72
2023/09/30 20:24:04;;;;;;;12.83;3.80;;;;;;;-145.68;100.00;75021.16;10445463;28;20230;-71
2023/09/30 20:29:04;;;;;;;12.80;4.07;;;;;;;-145.68;100.00;75035.16;10444745;28;20241;-72
2023/09/30 20:34:08;;;;;;;14.97;4.03;;;;;;;-145.68;100.00;75055.16;10446476;28;20246;-72
2023/09/30 20:39:10;;;;;;;9.17;3.80;;;;;;;-145.68;100.00;75055.16;10448893;28;20195;-72
2023/09/30 20:44:12;;;;;;;10.73;3.80;;;;;;;-145.68;100.00;75051.16;10445403;28;20228;-72
2023/09/30 20:49:12;;;;;;;11.20;3.70;;;;;;;-145.68;100.00;75055.16;10451992;28;20726;-72
2023/09/30 20:54:13;;;;;;;9.40;4.10;;;;;;;-145.68;100.00;75063.16;10458053;28;20184;-72
2023/09/30 20:59:14;;;;;;;12.50;3.80;;;;;;;-145.68;100.00;75071.16;10451415;28;20188;-72
2023/09/30 21:04:15;;;;;;;8.40;3.37;;;;;;;-145.68;100.00;75077.16;10451799;28;20219;-72
2023/09/30 21:09:17;;;;;;;6.70;3.00;;;;;;;-145.68;100.00;75081.16;10451140;28;20199;-72
2023/09/30 21:14:17;;;;;;;9.20;3.70;;;;;;;-145.68;100.00;75085.16;10457022;28;20532;-72
2023/09/30 21:19:18;;;;;;;12.00;3.83;;;;;;;-145.68;100.00;75077.16;10450877;28;20188;-73
2023/09/30 21:24:18;;;;;;;10.07;3.77;;;;;;;-145.68;100.00;75087.16;10451316;28;20215;-73
2023/09/30 21:29:18;;;;;;;9.93;3.60;;;;;;;-145.68;100.00;75093.16;10450228;28;20194;-73
2023/09/30 21:34:19;;;;;;;10.17;4.00;;;;;;;-145.68;100.00;75087.16;10456958;28;20195;-72
2023/09/30 21:39:20;;;;;;;10.17;4.17;;;;;;;-145.68;100.00;75101.16;10450202;28;20644;-72
2023/09/30 21:44:21;;;;;;;13.80;4.07;;;;;;;-145.68;100.00;75099.16;10449870;28;20276;-72
2023/09/30 21:49:21;;;;;;;11.53;4.03;;;;;;;-145.68;100.00;75107.16;10450556;28;20232;-72
2023/09/30 21:54:22;;;;;;;10.53;3.60;;;;;;;-145.68;100.00;75099.16;10458430;28;20493;-72
2023/09/30 21:59:22;;;;;;;12.33;3.90;;;;;;;-145.68;100.00;75095.16;10448501;28;20214;-72
2023/09/30 22:04:23;;;;;;;18.17;3.30;;;;;;;-145.68;100.00;75099.16;10447559;28;20742;-72
2023/09/30 22:09:23;;;;;;;10.43;3.90;;;;;;;-145.68;100.00;75103.16;10452502;28;20599;-72
2023/09/30 22:14:24;;;;;;;11.00;3.67;;;;;;;-145.68;100.00;75113.16;10451362;28;20253;-72
2023/09/30 22:19:24;;;;;;;8.90;3.10;;;;;;;-145.68;100.00;75115.16;10448927;28;20659;-72
2023/09/30 22:24:25;;;;;;;11.57;3.53;;;;;;;-145.68;100.00;75115.16;10448496;28;20223;-72
2023/09/30 22:29:26;;;;;;;13.23;3.70;;;;;;;-145.68;100.00;75123.16;10454280;28;20199;-72
2023/09/30 22:34:26;;;;;;;10.87;3.80;;;;;;;-145.68;100.00;75125.16;10448763;28;20540;-72